createdAt,value
2022-10-06T00:00:05.449Z,57.20
2022-10-06T00:02:36.249Z,57.56
2022-10-06T00:05:03.516Z,57.48
2022-10-06T00:07:30.097Z,57.79
2022-10-06T00:09:56.617Z,57.68
2022-10-06T00:12:23.210Z,58.18
2022-10-06T00:14:49.792Z,58.11
2022-10-06T00:17:16.419Z,58.00
2022-10-06T00:19:42.949Z,58.82
2022-10-06T00:22:09.489Z,59.01
2022-10-06T00:24:36.026Z,58.82
2022-10-06T00:27:03.861Z,58.91
2022-10-06T00:29:30.899Z,59.12
2022-10-06T00:31:57.697Z,59.46
2022-10-06T00:34:25.515Z,59.18
2022-10-06T00:36:52.283Z,59.56
2022-10-06T00:39:19.999Z,59.42
2022-10-06T00:41:46.744Z,59.67
2022-10-06T00:44:13.350Z,59.97
2022-10-06T00:46:47.234Z,60.15
2022-10-06T00:49:26.047Z,60.16
2022-10-06T00:51:56.974Z,60.35
2022-10-06T00:54:25.110Z,60.09
2022-10-06T00:56:52.869Z,60.07
2022-10-06T00:59:20.139Z,60.72
2022-10-06T01:01:56.907Z,60.49
2022-10-06T01:04:25.046Z,60.44
2022-10-06T01:06:56.033Z,60.45
2022-10-06T01:09:24.104Z,60.49
2022-10-06T01:11:53.784Z,60.46
2022-10-06T01:14:22.470Z,60.25
2022-10-06T01:16:56.075Z,60.42
2022-10-06T01:19:54.625Z,60.65
2022-10-06T01:22:29.109Z,60.52
2022-10-06T01:24:56.828Z,60.66
2022-10-06T01:27:26.522Z,60.78
2022-10-06T01:29:54.962Z,60.44
2022-10-06T01:32:23.353Z,60.40
2022-10-06T01:34:49.927Z,60.50
2022-10-06T01:37:16.632Z,60.15
2022-10-06T01:39:43.944Z,60.14
2022-10-06T01:42:11.002Z,60.27
2022-10-06T01:44:37.884Z,60.26
2022-10-06T01:47:05.912Z,60.54
2022-10-06T01:49:32.526Z,60.17
2022-10-06T01:51:59.545Z,60.31
2022-10-06T01:54:26.105Z,60.41
2022-10-06T01:56:53.177Z,60.64
2022-10-06T01:59:20.766Z,60.19
2022-10-06T02:01:47.503Z,60.47
2022-10-06T02:04:14.723Z,60.60
2022-10-06T02:06:41.440Z,60.72
2022-10-06T02:09:08.115Z,60.65
2022-10-06T02:11:35.448Z,61.03
2022-10-06T02:14:04.454Z,60.74
2022-10-06T02:16:31.232Z,60.81
2022-10-06T02:18:57.841Z,61.07
2022-10-06T02:21:24.632Z,61.22
2022-10-06T02:23:51.558Z,61.22
2022-10-06T02:26:19.315Z,61.63
2022-10-06T02:28:48.037Z,61.58
2022-10-06T02:31:19.401Z,61.44
2022-10-06T02:33:46.613Z,61.17
2022-10-06T02:36:16.686Z,61.30
2022-10-06T02:38:44.196Z,61.72
2022-10-06T02:41:11.403Z,61.96
2022-10-06T02:43:38.749Z,61.81
2022-10-06T02:46:08.631Z,62.25
2022-10-06T02:48:35.505Z,62.20
2022-10-06T02:51:09.955Z,61.66
2022-10-06T02:53:37.939Z,61.21
2022-10-06T02:56:10.806Z,61.37
2022-10-06T02:58:39.566Z,61.36
2022-10-06T03:01:15.250Z,60.72
2022-10-06T03:03:42.407Z,60.71
2022-10-06T03:06:23.489Z,60.38
2022-10-06T03:09:17.566Z,60.28
2022-10-06T03:11:44.223Z,60.67
2022-10-06T03:14:21.297Z,60.63
2022-10-06T03:16:51.477Z,59.86
2022-10-06T03:19:23.455Z,59.18
2022-10-06T03:21:50.271Z,58.28
2022-10-06T03:24:17.184Z,57.07
2022-10-06T03:26:47.893Z,56.41
2022-10-06T03:29:16.321Z,56.06
2022-10-06T03:31:47.656Z,55.64
2022-10-06T03:34:15.633Z,54.80
2022-10-06T03:36:44.256Z,55.26
2022-10-06T03:39:11.526Z,55.23
2022-10-06T03:41:39.178Z,55.24
2022-10-06T03:44:07.293Z,55.06
2022-10-06T03:46:36.729Z,55.00
2022-10-06T03:49:05.970Z,54.88
2022-10-06T03:51:35.421Z,54.93
2022-10-06T03:54:02.109Z,54.99
2022-10-06T03:56:33.488Z,55.08
2022-10-06T03:59:02.607Z,54.96
2022-10-06T04:01:44.632Z,54.66
2022-10-06T04:04:14.317Z,54.40
2022-10-06T04:06:44.340Z,54.08
2022-10-06T04:09:15.857Z,54.23
2022-10-06T04:11:44.373Z,53.71
2022-10-06T04:14:15.130Z,53.91
2022-10-06T04:16:49.701Z,53.50
2022-10-06T04:19:27.506Z,52.77
2022-10-06T04:21:56.077Z,52.82
2022-10-06T04:24:24.556Z,52.57
2022-10-06T04:26:52.420Z,52.96
2022-10-06T04:29:19.765Z,52.42
2022-10-06T04:31:51.329Z,52.34
2022-10-06T04:34:22.893Z,51.47
2022-10-06T04:36:49.820Z,51.19
2022-10-06T04:39:18.225Z,51.28
2022-10-06T04:41:47.117Z,51.40
2022-10-06T04:44:19.084Z,50.93
2022-10-06T04:46:46.330Z,51.01
2022-10-06T04:49:19.562Z,50.61
2022-10-06T04:51:49.491Z,50.59
2022-10-06T04:54:16.641Z,50.23
2022-10-06T04:56:43.276Z,50.42
2022-10-06T04:59:10.179Z,50.29
2022-10-06T05:01:39.145Z,50.63
2022-10-06T05:04:09.999Z,50.38
2022-10-06T05:06:41.868Z,50.26
2022-10-06T05:09:12.131Z,50.32
2022-10-06T05:11:43.450Z,50.65
2022-10-06T05:14:12.854Z,50.19
2022-10-06T05:16:43.553Z,50.54
2022-10-06T05:19:11.669Z,50.58
2022-10-06T05:21:39.514Z,50.26
2022-10-06T05:24:07.874Z,50.41
2022-10-06T05:26:36.724Z,50.00
2022-10-06T05:29:05.793Z,50.25
2022-10-06T05:31:35.172Z,50.52
2022-10-06T05:34:03.519Z,50.45
2022-10-06T05:36:32.513Z,50.16
2022-10-06T05:38:59.727Z,49.90
2022-10-06T05:41:31.102Z,50.27
2022-10-06T05:44:00.373Z,49.52
2022-10-06T05:46:30.919Z,49.89
2022-10-06T05:49:01.034Z,49.70
2022-10-06T05:51:33.707Z,50.06
2022-10-06T05:54:04.392Z,49.62
2022-10-06T05:56:33.419Z,49.56
2022-10-06T05:59:01.934Z,49.69
2022-10-06T06:01:40.348Z,49.70
2022-10-06T06:04:14.003Z,49.07
2022-10-06T06:06:48.773Z,49.44
2022-10-06T06:09:26.374Z,49.88
2022-10-06T06:11:55.071Z,49.72
2022-10-06T06:14:49.862Z,49.76
2022-10-06T06:17:20.971Z,49.61
2022-10-06T06:19:47.575Z,49.42
2022-10-06T06:22:15.478Z,49.15
2022-10-06T06:24:44.272Z,49.33
2022-10-06T06:27:11.276Z,49.59
2022-10-06T06:29:40.089Z,49.64
2022-10-06T06:32:09.508Z,49.15
2022-10-06T06:34:36.413Z,49.31
2022-10-06T06:37:07.575Z,49.24
2022-10-06T06:39:36.893Z,49.00
2022-10-06T06:42:05.112Z,48.63
2022-10-06T06:44:50.455Z,48.65
2022-10-06T06:47:37.353Z,48.09
2022-10-06T06:50:10.084Z,48.03
2022-10-06T06:52:37.788Z,47.84
2022-10-06T06:55:05.586Z,47.75
2022-10-06T06:57:32.950Z,47.43
2022-10-06T07:00:02.600Z,47.70
2022-10-06T07:02:30.595Z,47.62
2022-10-06T07:04:57.534Z,47.43
2022-10-06T07:07:24.125Z,47.34
2022-10-06T07:09:52.332Z,46.67
2022-10-06T07:12:21.189Z,46.28
2022-10-06T07:15:28.256Z,45.89
2022-10-06T07:18:14.478Z,46.34
2022-10-06T07:20:59.690Z,46.55
2022-10-06T07:23:45.842Z,46.49
2022-10-06T07:26:16.737Z,46.72
2022-10-06T07:28:44.143Z,47.04
2022-10-06T07:31:13.184Z,47.16
2022-10-06T07:33:40.819Z,46.68
2022-10-06T07:36:08.006Z,46.38
2022-10-06T07:38:34.749Z,46.15
2022-10-06T07:43:55.038Z,46.25
2022-10-06T07:46:22.872Z,46.35
2022-10-06T07:49:08.403Z,46.48
2022-10-06T07:51:35.381Z,46.96
2022-10-06T07:54:02.992Z,46.69
2022-10-06T07:56:34.493Z,47.63
2022-10-06T07:59:01.230Z,47.71
2022-10-06T08:01:29.634Z,47.28
2022-10-06T08:03:56.809Z,46.88
2022-10-06T08:06:24.416Z,47.11
2022-10-06T08:08:53.357Z,46.69
2022-10-06T08:11:21.648Z,45.10
2022-10-06T08:13:48.906Z,44.36
2022-10-06T08:16:21.329Z,43.94
2022-10-06T08:18:56.142Z,43.50
2022-10-06T08:21:31.231Z,42.85
2022-10-06T08:23:59.156Z,43.07
2022-10-06T08:26:27.592Z,42.39
2022-10-06T08:29:00.308Z,41.88
2022-10-06T08:31:27.075Z,42.09
2022-10-06T08:33:56.635Z,42.60
2022-10-06T08:36:30.946Z,42.61
2022-10-06T08:38:57.855Z,42.48
2022-10-06T08:41:39.516Z,42.63
2022-10-06T08:44:19.598Z,43.26
2022-10-06T08:47:01.623Z,43.20
2022-10-06T08:49:40.835Z,43.37
2022-10-06T08:52:18.103Z,43.15
2022-10-06T08:54:49.976Z,43.91
2022-10-06T08:57:28.401Z,43.97
2022-10-06T08:59:55.385Z,44.27
2022-10-06T09:02:30.394Z,44.25
2022-10-06T09:05:01.105Z,44.39
2022-10-06T09:08:04.107Z,44.07
2022-10-06T09:10:49.256Z,43.68
2022-10-06T09:13:32.063Z,42.89
2022-10-06T09:16:07.237Z,42.83
2022-10-06T09:19:03.782Z,42.08
2022-10-06T09:21:40.058Z,42.45
2022-10-06T09:24:13.839Z,42.26
2022-10-06T09:26:46.352Z,42.40
2022-10-06T09:29:14.106Z,42.66
2022-10-06T09:31:43.698Z,42.38
2022-10-06T09:34:25.736Z,41.81
2022-10-06T09:37:01.753Z,41.46
2022-10-06T09:39:37.010Z,41.19
2022-10-06T09:42:35.501Z,40.58
2022-10-06T09:45:04.985Z,38.70
2022-10-06T09:47:40.770Z,37.46
2022-10-06T09:50:21.778Z,36.66
2022-10-06T09:52:57.592Z,36.29
2022-10-06T09:55:29.242Z,30.82
2022-10-06T09:57:57.778Z,26.06
2022-10-06T10:00:32.920Z,25.78
2022-10-06T10:03:08.038Z,22.07
2022-10-06T10:05:45.799Z,18.54
2022-10-06T10:08:25.941Z,15.76
2022-10-06T10:11:37.961Z,13.54
2022-10-06T10:14:15.058Z,12.74
2022-10-06T10:16:42.482Z,12.43
2022-10-06T10:19:33.112Z,11.58
2022-10-06T10:22:00.051Z,10.88
2022-10-06T10:24:48.244Z,11.07
2022-10-06T10:27:23.625Z,13.09
2022-10-06T10:30:01.656Z,15.34
2022-10-06T10:32:37.480Z,18.05
2022-10-06T10:35:22.443Z,19.65
2022-10-06T10:38:05.149Z,20.35
2022-10-06T10:40:43.125Z,21.57
2022-10-06T10:43:12.470Z,21.59
2022-10-06T10:45:50.363Z,22.08
2022-10-06T10:48:46.344Z,22.04
2022-10-06T10:51:20.242Z,21.40
2022-10-06T10:54:01.186Z,22.13
2022-10-06T10:56:30.977Z,21.74
2022-10-06T10:59:07.149Z,20.03
2022-10-06T11:01:50.067Z,17.69
2022-10-06T11:04:16.931Z,15.90
2022-10-06T11:06:54.190Z,13.30
2022-10-06T11:09:26.685Z,11.39
2022-10-06T11:12:10.616Z,9.91
2022-10-06T11:14:50.876Z,9.29
2022-10-06T11:17:44.793Z,9.25
2022-10-06T11:20:22.188Z,9.44
2022-10-06T11:23:00.315Z,9.19
2022-10-06T11:25:35.035Z,9.38
2022-10-06T11:28:11.881Z,10.07
2022-10-06T11:31:09.902Z,9.74
2022-10-06T11:33:49.386Z,8.86
2022-10-06T11:36:29.883Z,10.59
2022-10-06T11:39:06.967Z,11.30
2022-10-06T11:41:44.019Z,12.71
2022-10-06T11:44:19.966Z,12.89
2022-10-06T11:47:45.165Z,13.15
2022-10-06T11:50:37.863Z,11.25
2022-10-06T11:53:05.915Z,12.47
2022-10-06T11:55:32.918Z,11.61
2022-10-06T11:58:23.568Z,10.26
2022-10-06T12:00:54.615Z,10.74
2022-10-06T12:03:33.233Z,10.34
2022-10-06T12:06:00.189Z,11.55
2022-10-06T12:08:38.370Z,10.28
2022-10-06T12:11:41.115Z,10.92
2022-10-06T12:17:27.822Z,11.41
2022-10-06T12:20:19.197Z,11.25
2022-10-06T12:22:52.523Z,12.65
2022-10-06T12:25:22.273Z,15.70
2022-10-06T12:28:17.027Z,18.12
2022-10-06T12:31:04.942Z,20.14
2022-10-06T12:33:38.190Z,21.52
2022-10-06T12:36:16.256Z,23.38
2022-10-06T12:39:05.087Z,24.59
2022-10-06T12:41:56.511Z,25.26
2022-10-06T12:44:38.219Z,26.59
2022-10-06T12:47:21.984Z,25.81
2022-10-06T12:49:55.371Z,26.08
2022-10-06T12:52:52.181Z,26.29
2022-10-06T12:55:32.175Z,26.82
2022-10-06T12:57:59.121Z,27.00
2022-10-06T13:00:42.511Z,27.14
2022-10-06T13:03:18.465Z,27.11
2022-10-06T13:05:51.515Z,28.20
2022-10-06T13:08:23.236Z,28.70
2022-10-06T13:10:50.501Z,29.13
2022-10-06T13:13:25.045Z,28.93
2022-10-06T13:15:55.968Z,28.98
2022-10-06T13:18:23.371Z,29.20
2022-10-06T13:20:55.213Z,28.20
2022-10-06T13:23:29.319Z,28.51
2022-10-06T13:26:00.242Z,28.61
2022-10-06T13:28:33.037Z,28.98
2022-10-06T13:31:17.255Z,29.14
2022-10-06T13:33:46.001Z,29.40
2022-10-06T13:36:13.446Z,29.68
2022-10-06T13:38:41.845Z,29.47
2022-10-06T13:41:29.701Z,29.51
2022-10-06T13:43:56.266Z,29.87
2022-10-06T13:46:26.755Z,30.72
2022-10-06T13:49:03.446Z,31.56
2022-10-06T13:51:32.423Z,31.09
2022-10-06T13:54:01.454Z,30.51
2022-10-06T13:56:39.156Z,31.19
2022-10-06T13:59:31.056Z,30.78
2022-10-06T14:02:00.586Z,31.17
2022-10-06T14:04:27.150Z,30.58
2022-10-06T14:06:58.112Z,30.93
2022-10-06T14:09:31.191Z,31.24
2022-10-06T14:12:20.439Z,31.00
2022-10-06T14:14:49.733Z,31.50
2022-10-06T14:17:25.653Z,30.57
2022-10-06T14:19:52.410Z,30.77
2022-10-06T14:22:38.317Z,29.91
2022-10-06T14:25:12.305Z,30.11
2022-10-06T14:27:38.892Z,30.79
2022-10-06T14:30:06.113Z,30.46
2022-10-06T14:32:32.732Z,30.55
2022-10-06T14:34:59.375Z,30.33
2022-10-06T14:37:25.913Z,30.92
2022-10-06T14:39:53.953Z,31.17
2022-10-06T14:42:24.244Z,31.28
2022-10-06T14:44:50.689Z,31.14
2022-10-06T14:47:17.363Z,31.19
2022-10-06T14:49:45.182Z,31.45
2022-10-06T14:52:12.062Z,31.32
2022-10-06T14:54:39.018Z,31.53
2022-10-06T14:57:05.707Z,32.06
2022-10-06T14:59:32.654Z,31.93
2022-10-06T15:01:59.232Z,32.21
2022-10-06T15:04:27.694Z,32.01
2022-10-06T15:07:12.986Z,32.44
2022-10-06T15:09:39.645Z,32.21
2022-10-06T15:12:06.340Z,32.02
2022-10-06T15:14:35.185Z,32.50
2022-10-06T15:17:02.236Z,32.74
2022-10-06T15:19:28.824Z,32.88
2022-10-06T15:21:56.180Z,32.08
2022-10-06T15:24:22.745Z,32.25
2022-10-06T15:27:07.861Z,32.19
2022-10-06T15:29:37.440Z,32.31
2022-10-06T15:32:06.530Z,32.99
2022-10-06T15:34:34.642Z,33.10
2022-10-06T15:37:01.414Z,33.13
2022-10-06T15:39:30.519Z,33.25
2022-10-06T15:41:58.005Z,33.53
2022-10-06T15:44:24.685Z,33.74
2022-10-06T15:46:56.045Z,34.06
2022-10-06T15:49:26.635Z,33.87
2022-10-06T15:51:56.547Z,33.97
2022-10-06T15:54:37.962Z,34.32
2022-10-06T15:57:08.556Z,34.09
2022-10-06T15:59:35.475Z,34.18
2022-10-06T16:02:09.702Z,34.34
2022-10-06T16:04:38.322Z,34.26
2022-10-06T16:07:19.025Z,34.94
2022-10-06T16:09:47.743Z,34.85
2022-10-06T16:12:17.092Z,35.03
2022-10-06T16:14:44.103Z,34.91
2022-10-06T16:17:11.571Z,35.23
2022-10-06T16:19:38.549Z,35.22
2022-10-06T16:22:07.085Z,35.44
2022-10-06T16:24:34.128Z,35.80
2022-10-06T16:27:00.787Z,35.85
2022-10-06T16:29:28.069Z,35.99
2022-10-06T16:31:55.137Z,36.28
2022-10-06T16:34:22.747Z,36.15
2022-10-06T16:36:49.449Z,36.71
2022-10-06T16:39:23.510Z,36.39
2022-10-06T16:41:51.176Z,36.90
2022-10-06T16:44:18.215Z,36.42
2022-10-06T16:46:45.245Z,36.42
2022-10-06T16:49:12.292Z,36.98
2022-10-06T16:51:41.542Z,36.99
2022-10-06T16:54:10.653Z,37.63
2022-10-06T16:56:46.218Z,37.29
2022-10-06T16:59:21.004Z,37.86
2022-10-06T17:01:48.823Z,38.39
2022-10-06T17:04:18.220Z,38.88
2022-10-06T17:06:56.067Z,39.04
2022-10-06T17:09:25.104Z,39.23
2022-10-06T17:11:54.798Z,39.18
2022-10-06T17:14:22.675Z,39.22
2022-10-06T17:16:51.905Z,39.30
2022-10-06T17:19:20.647Z,39.25
2022-10-06T17:21:50.488Z,39.58
2022-10-06T17:24:19.842Z,39.86
2022-10-06T17:26:49.359Z,39.91
2022-10-06T17:29:18.969Z,39.66
2022-10-06T17:31:46.844Z,40.49
2022-10-06T17:34:20.287Z,40.57
2022-10-06T17:36:50.550Z,40.48
2022-10-06T17:39:19.458Z,40.84
2022-10-06T17:41:47.744Z,41.20
2022-10-06T17:44:22.742Z,41.24
2022-10-06T17:46:51.821Z,41.81
2022-10-06T17:49:20.680Z,41.72
2022-10-06T17:51:47.956Z,41.54
2022-10-06T17:54:16.927Z,41.98
2022-10-06T17:56:46.002Z,41.87
2022-10-06T17:59:18.607Z,42.03
2022-10-06T18:01:45.382Z,42.19
2022-10-06T18:04:16.201Z,42.04
2022-10-06T18:06:44.495Z,42.53
2022-10-06T18:09:11.407Z,42.82
2022-10-06T18:11:39.670Z,42.63
2022-10-06T18:14:07.620Z,42.91
2022-10-06T18:16:55.678Z,42.96
2022-10-06T18:19:26.388Z,43.44
2022-10-06T18:21:56.551Z,43.65
2022-10-06T18:24:26.024Z,44.15
2022-10-06T18:26:54.848Z,44.55
2022-10-06T18:29:23.820Z,45.12
2022-10-06T18:31:52.673Z,45.07
2022-10-06T18:37:06.247Z,45.42
2022-10-06T18:39:33.490Z,45.73
2022-10-06T18:42:05.345Z,45.61
2022-10-06T18:44:50.593Z,45.51
2022-10-06T18:47:35.855Z,44.99
2022-10-06T18:50:02.641Z,45.31
2022-10-06T18:52:29.178Z,45.37
2022-10-06T18:54:55.778Z,45.86
2022-10-06T18:57:27.287Z,45.47
2022-10-06T18:59:55.009Z,45.97
2022-10-06T19:02:21.758Z,46.27
2022-10-06T19:04:48.482Z,46.49
2022-10-06T19:07:15.181Z,46.82
2022-10-06T19:09:46.407Z,46.31
2022-10-06T19:12:14.081Z,46.79
2022-10-06T19:14:47.108Z,46.86
2022-10-06T19:17:14.906Z,46.88
2022-10-06T19:19:56.963Z,46.81
2022-10-06T19:22:24.997Z,47.14
2022-10-06T19:24:52.383Z,47.33
2022-10-06T19:27:24.294Z,47.20
2022-10-06T19:29:56.629Z,47.66
2022-10-06T19:32:26.603Z,47.10
2022-10-06T19:34:54.869Z,48.21
2022-10-06T19:37:21.741Z,48.70
2022-10-06T19:39:50.196Z,48.51
2022-10-06T19:42:37.579Z,48.48
2022-10-06T19:45:05.737Z,48.72
2022-10-06T19:47:32.453Z,48.68
2022-10-06T19:50:03.683Z,48.76
2022-10-06T19:52:33.266Z,49.30
2022-10-06T19:55:04.652Z,48.94
2022-10-06T19:57:32.520Z,49.29
2022-10-06T19:59:59.163Z,49.26
2022-10-06T20:02:25.893Z,49.62
2022-10-06T20:04:52.448Z,49.48
2022-10-06T20:07:21.702Z,49.35
2022-10-06T20:09:48.645Z,49.42
2022-10-06T20:12:19.739Z,49.09
2022-10-06T20:14:49.903Z,49.30
2022-10-06T20:17:17.543Z,49.62
2022-10-06T20:19:46.596Z,48.84
2022-10-06T20:22:13.488Z,49.42
2022-10-06T20:24:40.218Z,49.46
2022-10-06T20:27:06.834Z,49.66
2022-10-06T20:29:34.720Z,50.20
2022-10-06T20:32:01.600Z,49.73
2022-10-06T20:34:33.349Z,50.25
2022-10-06T20:37:02.539Z,50.50
2022-10-06T20:39:52.343Z,50.42
2022-10-06T20:42:19.797Z,50.95
2022-10-06T20:44:46.682Z,51.42
2022-10-06T20:47:13.951Z,51.12
2022-10-06T20:49:42.305Z,51.31
2022-10-06T20:52:09.751Z,51.46
2022-10-06T20:54:37.214Z,51.71
2022-10-06T20:57:06.090Z,51.67
2022-10-06T20:59:36.508Z,51.26
2022-10-06T21:02:04.493Z,51.84
2022-10-06T21:04:31.041Z,52.17
2022-10-06T21:06:57.797Z,52.10
2022-10-06T21:09:24.924Z,52.09
2022-10-06T21:11:51.816Z,52.80
2022-10-06T21:14:18.608Z,52.67
2022-10-06T21:16:46.931Z,53.01
2022-10-06T21:19:16.636Z,52.71
2022-10-06T21:21:45.887Z,53.35
2022-10-06T21:24:12.971Z,52.98
2022-10-06T21:26:42.197Z,53.66
2022-10-06T21:29:10.711Z,53.95
2022-10-06T21:31:37.322Z,53.56
2022-10-06T21:34:05.011Z,54.41
2022-10-06T21:36:32.120Z,53.99
2022-10-06T21:39:00.971Z,54.25
2022-10-06T21:41:35.930Z,53.70
2022-10-06T21:44:03.936Z,53.68
2022-10-06T21:46:36.204Z,53.53
2022-10-06T21:49:05.647Z,53.23
2022-10-06T21:51:33.190Z,53.61
2022-10-06T21:54:00.987Z,53.80
2022-10-06T21:56:30.143Z,53.93
2022-10-06T21:58:57.652Z,54.14
2022-10-06T22:01:27.924Z,53.71
2022-10-06T22:03:56.718Z,53.71
2022-10-06T22:06:23.809Z,53.43
2022-10-06T22:08:50.534Z,53.61
2022-10-06T22:11:22.588Z,53.55
2022-10-06T22:13:52.792Z,53.68
2022-10-06T22:16:22.346Z,54.26
2022-10-06T22:18:49.624Z,53.91
2022-10-06T22:21:26.871Z,54.47
2022-10-06T22:23:56.015Z,54.12
2022-10-06T22:26:23.806Z,54.40
2022-10-06T22:28:52.014Z,54.74
2022-10-06T22:31:23.335Z,54.70
2022-10-06T22:33:55.480Z,55.01
2022-10-06T22:36:22.978Z,55.30
2022-10-06T22:38:50.206Z,55.45
2022-10-06T22:41:17.259Z,55.37
2022-10-06T22:43:43.997Z,55.40
2022-10-06T22:46:11.822Z,55.40
2022-10-06T22:48:38.938Z,55.43
2022-10-06T22:51:06.591Z,55.78
2022-10-06T22:53:33.998Z,55.22
2022-10-06T22:56:01.919Z,55.83
2022-10-06T22:58:28.725Z,55.56
2022-10-06T23:00:55.439Z,56.04
2022-10-06T23:03:22.453Z,56.03
2022-10-06T23:05:57.478Z,56.48
2022-10-06T23:08:25.155Z,56.49
2022-10-06T23:10:51.853Z,56.82
2022-10-06T23:13:19.533Z,57.13
2022-10-06T23:15:46.624Z,56.58
2022-10-06T23:18:14.066Z,57.32
2022-10-06T23:20:40.627Z,56.99
2022-10-06T23:23:07.288Z,56.67
2022-10-06T23:25:37.973Z,56.75
2022-10-06T23:28:04.896Z,56.35
2022-10-06T23:30:34.464Z,56.63
2022-10-06T23:33:01.073Z,56.71
2022-10-06T23:35:27.720Z,56.86
2022-10-06T23:37:54.398Z,56.83
2022-10-06T23:40:20.902Z,56.97
2022-10-06T23:42:47.491Z,56.67
2022-10-06T23:45:14.004Z,56.86
2022-10-06T23:47:40.549Z,56.80
2022-10-06T23:50:07.772Z,56.97
2022-10-06T23:52:34.431Z,57.30
2022-10-06T23:55:01.000Z,56.63
2022-10-06T23:57:27.630Z,56.79
2022-10-06T23:59:54.243Z,56.99
